sensor_id;sensor_type;location;lat;lon;timestamp;temperature;humidity
3406;DHT22;10008;48.682;9.016;2023-03-23T00:01:12;13.10;93.10
3406;DHT22;10008;48.682;9.016;2023-03-23T00:03:39;13.10;93.50
3406;DHT22;10008;48.682;9.016;2023-03-23T00:06:05;13.10;93.30
3406;DHT22;10008;48.682;9.016;2023-03-23T00:08:38;13.10;93.50
3406;DHT22;10008;48.682;9.016;2023-03-23T00:11:19;13.10;93.40
3406;DHT22;10008;48.682;9.016;2023-03-23T00:13:46;13.10;93.10
3406;DHT22;10008;48.682;9.016;2023-03-23T00:16:13;13.10;93.60
3406;DHT22;10008;48.682;9.016;2023-03-23T00:18:50;13.10;92.90
3406;DHT22;10008;48.682;9.016;2023-03-23T00:21:20;13.00;93.60
3406;DHT22;10008;48.682;9.016;2023-03-23T00:23:51;13.10;93.30
3406;DHT22;10008;48.682;9.016;2023-03-23T00:26:17;13.00;93.00
3406;DHT22;10008;48.682;9.016;2023-03-23T00:28:43;13.00;92.70
3406;DHT22;10008;48.682;9.016;2023-03-23T00:31:12;13.00;93.20
3406;DHT22;10008;48.682;9.016;2023-03-23T00:33:39;13.10;93.20
3406;DHT22;10008;48.682;9.016;2023-03-23T00:36:11;13.00;92.90
3406;DHT22;10008;48.682;9.016;2023-03-23T00:38:38;13.00;93.80
3406;DHT22;10008;48.682;9.016;2023-03-23T00:41:05;12.90;93.40
3406;DHT22;10008;48.682;9.016;2023-03-23T00:43:32;12.80;93.70
3406;DHT22;10008;48.682;9.016;2023-03-23T00:46:01;12.80;93.70
3406;DHT22;10008;48.682;9.016;2023-03-23T00:48:28;12.70;93.50
3406;DHT22;10008;48.682;9.016;2023-03-23T00:50:55;12.70;93.40
3406;DHT22;10008;48.682;9.016;2023-03-23T00:53:22;12.60;93.80
3406;DHT22;10008;48.682;9.016;2023-03-23T00:55:48;12.60;93.70
3406;DHT22;10008;48.682;9.016;2023-03-23T00:58:15;12.60;93.70
3406;DHT22;10008;48.682;9.016;2023-03-23T01:00:41;12.60;93.40
3406;DHT22;10008;48.682;9.016;2023-03-23T01:03:09;12.60;93.30
3406;DHT22;10008;48.682;9.016;2023-03-23T01:05:39;12.60;93.40
3406;DHT22;10008;48.682;9.016;2023-03-23T01:08:06;12.60;93.60
3406;DHT22;10008;48.682;9.016;2023-03-23T01:10:32;12.60;93.50
3406;DHT22;10008;48.682;9.016;2023-03-23T01:12:59;12.60;93.80
3406;DHT22;10008;48.682;9.016;2023-03-23T01:15:29;12.50;93.60
3406;DHT22;10008;48.682;9.016;2023-03-23T01:17:55;12.50;93.70
3406;DHT22;10008;48.682;9.016;2023-03-23T01:20:21;12.50;93.80
3406;DHT22;10008;48.682;9.016;2023-03-23T01:22:47;12.40;93.80
3406;DHT22;10008;48.682;9.016;2023-03-23T01:25:13;12.40;93.60
3406;DHT22;10008;48.682;9.016;2023-03-23T01:27:39;12.40;93.20
3406;DHT22;10008;48.682;9.016;2023-03-23T01:30:07;12.40;93.60
3406;DHT22;10008;48.682;9.016;2023-03-23T01:32:33;12.40;93.70
3406;DHT22;10008;48.682;9.016;2023-03-23T01:34:59;12.40;93.70
3406;DHT22;10008;48.682;9.016;2023-03-23T01:37:26;12.40;93.50
3406;DHT22;10008;48.682;9.016;2023-03-23T01:39:54;12.40;93.70
3406;DHT22;10008;48.682;9.016;2023-03-23T01:42:25;12.40;93.90
3406;DHT22;10008;48.682;9.016;2023-03-23T01:47:20;12.30;93.80
3406;DHT22;10008;48.682;9.016;2023-03-23T01:49:49;12.30;93.60
3406;DHT22;10008;48.682;9.016;2023-03-23T01:52:24;12.30;93.80
3406;DHT22;10008;48.682;9.016;2023-03-23T01:54:58;12.40;93.40
3406;DHT22;10008;48.682;9.016;2023-03-23T01:57:25;12.40;93.70
3406;DHT22;10008;48.682;9.016;2023-03-23T01:59:58;12.50;93.60
3406;DHT22;10008;48.682;9.016;2023-03-23T02:02:43;12.50;93.60
3406;DHT22;10008;48.682;9.016;2023-03-23T02:05:14;12.50;93.90
3406;DHT22;10008;48.682;9.016;2023-03-23T02:07:43;12.60;93.90
3406;DHT22;10008;48.682;9.016;2023-03-23T02:10:09;12.50;94.60
3406;DHT22;10008;48.682;9.016;2023-03-23T02:12:36;12.60;94.20
3406;DHT22;10008;48.682;9.016;2023-03-23T02:15:02;12.60;94.50
3406;DHT22;10008;48.682;9.016;2023-03-23T02:20:52;12.50;94.50
3406;DHT22;10008;48.682;9.016;2023-03-23T02:23:39;12.60;94.90
3406;DHT22;10008;48.682;9.016;2023-03-23T02:31:43;12.50;95.40
3406;DHT22;10008;48.682;9.016;2023-03-23T02:34:18;12.50;95.60
3406;DHT22;10008;48.682;9.016;2023-03-23T02:36:55;12.50;95.70
3406;DHT22;10008;48.682;9.016;2023-03-23T02:39:25;12.50;95.20
3406;DHT22;10008;48.682;9.016;2023-03-23T02:42:02;12.40;95.40
3406;DHT22;10008;48.682;9.016;2023-03-23T02:44:31;12.40;95.70
3406;DHT22;10008;48.682;9.016;2023-03-23T02:47:00;12.30;96.00
3406;DHT22;10008;48.682;9.016;2023-03-23T02:49:31;12.30;95.90
3406;DHT22;10008;48.682;9.016;2023-03-23T02:51:59;12.40;95.90
3406;DHT22;10008;48.682;9.016;2023-03-23T02:54:27;12.40;96.10
3406;DHT22;10008;48.682;9.016;2023-03-23T02:56:55;12.30;95.70
3406;DHT22;10008;48.682;9.016;2023-03-23T02:59:26;12.30;95.60
3406;DHT22;10008;48.682;9.016;2023-03-23T03:01:57;12.40;96.00
3406;DHT22;10008;48.682;9.016;2023-03-23T03:04:26;12.40;95.30
3406;DHT22;10008;48.682;9.016;2023-03-23T03:12:44;12.50;95.30
3406;DHT22;10008;48.682;9.016;2023-03-23T03:18:34;12.60;95.50
3406;DHT22;10008;48.682;9.016;2023-03-23T03:20:45;12.60;95.30
3406;DHT22;10008;48.682;9.016;2023-03-23T03:23:13;12.70;95.40
3406;DHT22;10008;48.682;9.016;2023-03-23T03:25:43;12.60;95.30
3406;DHT22;10008;48.682;9.016;2023-03-23T03:28:17;12.70;95.60
3406;DHT22;10008;48.682;9.016;2023-03-23T03:30:57;12.70;95.30
3406;DHT22;10008;48.682;9.016;2023-03-23T03:33:28;12.70;95.30
3406;DHT22;10008;48.682;9.016;2023-03-23T03:35:59;12.70;95.30
3406;DHT22;10008;48.682;9.016;2023-03-23T03:38:27;12.70;95.30
3406;DHT22;10008;48.682;9.016;2023-03-23T03:40:54;12.70;95.60
3406;DHT22;10008;48.682;9.016;2023-03-23T03:43:19;12.70;95.50
3406;DHT22;10008;48.682;9.016;2023-03-23T03:45:46;12.70;95.80
3406;DHT22;10008;48.682;9.016;2023-03-23T03:48:11;12.70;95.70
3406;DHT22;10008;48.682;9.016;2023-03-23T03:50:37;12.70;95.80
3406;DHT22;10008;48.682;9.016;2023-03-23T03:53:04;12.70;96.00
3406;DHT22;10008;48.682;9.016;2023-03-23T03:55:31;12.70;96.10
3406;DHT22;10008;48.682;9.016;2023-03-23T03:58:02;12.70;96.10
3406;DHT22;10008;48.682;9.016;2023-03-23T04:00:56;12.70;96.00
3406;DHT22;10008;48.682;9.016;2023-03-23T04:03:26;12.70;95.90
3406;DHT22;10008;48.682;9.016;2023-03-23T04:06:05;12.70;96.10
3406;DHT22;10008;48.682;9.016;2023-03-23T04:08:33;12.70;95.90
3406;DHT22;10008;48.682;9.016;2023-03-23T04:10:59;12.60;96.30
3406;DHT22;10008;48.682;9.016;2023-03-23T04:13:27;12.60;96.00
3406;DHT22;10008;48.682;9.016;2023-03-23T04:16:24;12.70;96.10
3406;DHT22;10008;48.682;9.016;2023-03-23T04:18:52;12.80;96.20
3406;DHT22;10008;48.682;9.016;2023-03-23T04:21:21;12.80;96.40
3406;DHT22;10008;48.682;9.016;2023-03-23T04:23:49;12.80;96.10
3406;DHT22;10008;48.682;9.016;2023-03-23T04:26:14;12.90;95.90
3406;DHT22;10008;48.682;9.016;2023-03-23T04:28:44;12.80;96.10
3406;DHT22;10008;48.682;9.016;2023-03-23T04:31:35;12.90;95.40
3406;DHT22;10008;48.682;9.016;2023-03-23T04:34:21;12.90;96.20
3406;DHT22;10008;48.682;9.016;2023-03-23T04:36:49;13.00;96.10
3406;DHT22;10008;48.682;9.016;2023-03-23T04:39:20;12.90;95.50
3406;DHT22;10008;48.682;9.016;2023-03-23T04:41:46;13.00;95.70
3406;DHT22;10008;48.682;9.016;2023-03-23T04:44:32;13.00;96.20
3406;DHT22;10008;48.682;9.016;2023-03-23T04:47:05;13.00;95.80
3406;DHT22;10008;48.682;9.016;2023-03-23T04:49:36;13.00;95.70
3406;DHT22;10008;48.682;9.016;2023-03-23T04:52:18;12.90;96.00
3406;DHT22;10008;48.682;9.016;2023-03-23T04:54:51;12.90;96.40
3406;DHT22;10008;48.682;9.016;2023-03-23T04:57:18;12.90;96.60
3406;DHT22;10008;48.682;9.016;2023-03-23T04:59:59;12.90;96.20
3406;DHT22;10008;48.682;9.016;2023-03-23T05:02:38;12.80;96.50
3406;DHT22;10008;48.682;9.016;2023-03-23T05:05:06;12.80;96.40
3406;DHT22;10008;48.682;9.016;2023-03-23T05:07:32;12.80;96.50
3406;DHT22;10008;48.682;9.016;2023-03-23T05:09:58;12.80;96.30
3406;DHT22;10008;48.682;9.016;2023-03-23T05:12:27;12.80;96.30
3406;DHT22;10008;48.682;9.016;2023-03-23T05:14:57;12.80;96.50
3406;DHT22;10008;48.682;9.016;2023-03-23T05:17:26;12.80;96.60
3406;DHT22;10008;48.682;9.016;2023-03-23T05:19:54;12.80;96.40
3406;DHT22;10008;48.682;9.016;2023-03-23T05:22:41;12.80;96.30
3406;DHT22;10008;48.682;9.016;2023-03-23T05:25:08;12.90;96.20
3406;DHT22;10008;48.682;9.016;2023-03-23T05:27:37;12.90;96.10
3406;DHT22;10008;48.682;9.016;2023-03-23T05:30:13;12.90;96.10
3406;DHT22;10008;48.682;9.016;2023-03-23T05:32:43;13.00;96.10
3406;DHT22;10008;48.682;9.016;2023-03-23T05:35:30;13.10;96.10
3406;DHT22;10008;48.682;9.016;2023-03-23T05:37:57;13.00;96.10
3406;DHT22;10008;48.682;9.016;2023-03-23T05:40:23;13.00;95.80
3406;DHT22;10008;48.682;9.016;2023-03-23T05:43:17;13.10;95.60
3406;DHT22;10008;48.682;9.016;2023-03-23T05:46:05;13.20;95.50
3406;DHT22;10008;48.682;9.016;2023-03-23T05:48:33;13.10;95.60
3406;DHT22;10008;48.682;9.016;2023-03-23T05:50:59;13.20;95.50
3406;DHT22;10008;48.682;9.016;2023-03-23T05:53:26;13.20;95.30
3406;DHT22;10008;48.682;9.016;2023-03-23T05:55:57;13.20;95.50
3406;DHT22;10008;48.682;9.016;2023-03-23T05:58:35;13.30;95.70
3406;DHT22;10008;48.682;9.016;2023-03-23T06:01:06;13.30;95.50
3406;DHT22;10008;48.682;9.016;2023-03-23T06:03:32;13.30;95.30
3406;DHT22;10008;48.682;9.016;2023-03-23T06:06:26;13.30;95.30
3406;DHT22;10008;48.682;9.016;2023-03-23T06:08:58;13.30;95.40
3406;DHT22;10008;48.682;9.016;2023-03-23T06:11:37;13.40;95.30
3406;DHT22;10008;48.682;9.016;2023-03-23T06:14:25;13.50;95.30
3406;DHT22;10008;48.682;9.016;2023-03-23T06:16:51;13.50;95.40
3406;DHT22;10008;48.682;9.016;2023-03-23T06:19:17;13.50;95.10
3406;DHT22;10008;48.682;9.016;2023-03-23T06:21:54;13.60;96.40
3406;DHT22;10008;48.682;9.016;2023-03-23T06:24:41;13.70;95.30
3406;DHT22;10008;48.682;9.016;2023-03-23T06:27:07;13.80;95.00
3406;DHT22;10008;48.682;9.016;2023-03-23T06:29:35;13.80;95.00
3406;DHT22;10008;48.682;9.016;2023-03-23T06:32:02;13.70;94.90
3406;DHT22;10008;48.682;9.016;2023-03-23T06:34:30;12.70;94.40
3406;DHT22;10008;48.682;9.016;2023-03-23T06:37:14;13.80;94.80
3406;DHT22;10008;48.682;9.016;2023-03-23T06:40:05;13.80;94.70
3406;DHT22;10008;48.682;9.016;2023-03-23T06:42:38;13.80;94.70
3406;DHT22;10008;48.682;9.016;2023-03-23T06:45:22;13.80;94.60
3406;DHT22;10008;48.682;9.016;2023-03-23T06:47:54;13.80;94.60
3406;DHT22;10008;48.682;9.016;2023-03-23T06:50:20;13.90;94.70
3406;DHT22;10008;48.682;9.016;2023-03-23T06:52:47;14.00;94.90
3406;DHT22;10008;48.682;9.016;2023-03-23T06:55:14;14.00;94.60
3406;DHT22;10008;48.682;9.016;2023-03-23T06:57:40;14.00;94.20
3406;DHT22;10008;48.682;9.016;2023-03-23T07:00:07;14.10;94.40
3406;DHT22;10008;48.682;9.016;2023-03-23T07:02:34;14.10;94.50
3406;DHT22;10008;48.682;9.016;2023-03-23T07:05:01;14.10;94.50
3406;DHT22;10008;48.682;9.016;2023-03-23T07:07:29;14.10;94.30
3406;DHT22;10008;48.682;9.016;2023-03-23T07:10:27;14.00;94.50
3406;DHT22;10008;48.682;9.016;2023-03-23T07:12:53;14.00;94.60
3406;DHT22;10008;48.682;9.016;2023-03-23T07:15:19;14.00;94.50
3406;DHT22;10008;48.682;9.016;2023-03-23T07:17:49;13.90;94.60
3406;DHT22;10008;48.682;9.016;2023-03-23T07:20:22;13.90;94.90
3406;DHT22;10008;48.682;9.016;2023-03-23T07:22:48;13.90;94.90
3406;DHT22;10008;48.682;9.016;2023-03-23T07:25:35;13.90;95.20
3406;DHT22;10008;48.682;9.016;2023-03-23T07:28:03;13.80;95.10
3406;DHT22;10008;48.682;9.016;2023-03-23T07:30:30;13.80;95.40
3406;DHT22;10008;48.682;9.016;2023-03-23T07:32:57;13.80;95.50
3406;DHT22;10008;48.682;9.016;2023-03-23T07:35:25;13.80;95.70
3406;DHT22;10008;48.682;9.016;2023-03-23T07:37:59;13.90;95.70
3406;DHT22;10008;48.682;9.016;2023-03-23T07:40:26;13.90;95.90
3406;DHT22;10008;48.682;9.016;2023-03-23T07:42:56;13.90;95.60
3406;DHT22;10008;48.682;9.016;2023-03-23T07:45:38;14.00;95.70
3406;DHT22;10008;48.682;9.016;2023-03-23T07:48:05;13.90;95.90
3406;DHT22;10008;48.682;9.016;2023-03-23T07:50:31;14.10;96.00
3406;DHT22;10008;48.682;9.016;2023-03-23T07:53:00;14.20;96.30
3406;DHT22;10008;48.682;9.016;2023-03-23T07:55:29;14.30;96.40
3406;DHT22;10008;48.682;9.016;2023-03-23T07:58:05;14.40;96.60
3406;DHT22;10008;48.682;9.016;2023-03-23T08:00:31;14.40;96.40
3406;DHT22;10008;48.682;9.016;2023-03-23T08:03:00;14.50;96.30
3406;DHT22;10008;48.682;9.016;2023-03-23T08:05:47;14.50;96.60
3406;DHT22;10008;48.682;9.016;2023-03-23T08:08:13;14.40;96.50
3406;DHT22;10008;48.682;9.016;2023-03-23T08:10:40;14.50;96.70
3406;DHT22;10008;48.682;9.016;2023-03-23T08:13:22;14.40;97.00
3406;DHT22;10008;48.682;9.016;2023-03-23T08:16:19;14.30;97.20
3406;DHT22;10008;48.682;9.016;2023-03-23T08:19:03;14.40;97.20
3406;DHT22;10008;48.682;9.016;2023-03-23T08:21:33;14.60;97.20
3406;DHT22;10008;48.682;9.016;2023-03-23T08:24:23;14.70;97.00
3406;DHT22;10008;48.682;9.016;2023-03-23T08:27:12;14.80;97.50
3406;DHT22;10008;48.682;9.016;2023-03-23T08:29:38;14.70;97.40
3406;DHT22;10008;48.682;9.016;2023-03-23T08:32:15;14.60;97.70
3406;DHT22;10008;48.682;9.016;2023-03-23T08:34:52;14.60;97.90
3406;DHT22;10008;48.682;9.016;2023-03-23T08:37:44;14.60;98.00
3406;DHT22;10008;48.682;9.016;2023-03-23T08:40:37;14.50;98.20
3406;DHT22;10008;48.682;9.016;2023-03-23T08:43:23;14.40;98.90
3406;DHT22;10008;48.682;9.016;2023-03-23T08:46:12;14.40;98.90
3406;DHT22;10008;48.682;9.016;2023-03-23T08:48:56;14.50;99.30
3406;DHT22;10008;48.682;9.016;2023-03-23T08:51:57;14.60;99.10
3406;DHT22;10008;48.682;9.016;2023-03-23T08:54:50;14.50;99.10
3406;DHT22;10008;48.682;9.016;2023-03-23T08:57:38;14.40;99.40
3406;DHT22;10008;48.682;9.016;2023-03-23T09:00:24;14.50;99.60
3406;DHT22;10008;48.682;9.016;2023-03-23T09:03:02;14.60;99.80
3406;DHT22;10008;48.682;9.016;2023-03-23T09:05:40;14.70;99.80
3406;DHT22;10008;48.682;9.016;2023-03-23T09:08:26;14.70;99.80
3406;DHT22;10008;48.682;9.016;2023-03-23T09:10:53;14.90;99.60
3406;DHT22;10008;48.682;9.016;2023-03-23T09:13:18;14.90;99.40
3406;DHT22;10008;48.682;9.016;2023-03-23T09:15:44;14.80;99.30
3406;DHT22;10008;48.682;9.016;2023-03-23T09:18:10;14.80;99.60
3406;DHT22;10008;48.682;9.016;2023-03-23T09:20:37;14.90;99.20
3406;DHT22;10008;48.682;9.016;2023-03-23T09:23:03;15.00;98.90
3406;DHT22;10008;48.682;9.016;2023-03-23T09:25:29;15.10;98.90
3406;DHT22;10008;48.682;9.016;2023-03-23T09:27:57;15.30;98.50
3406;DHT22;10008;48.682;9.016;2023-03-23T09:30:25;15.20;98.40
3406;DHT22;10008;48.682;9.016;2023-03-23T09:32:53;15.10;98.70
3406;DHT22;10008;48.682;9.016;2023-03-23T09:35:19;15.00;98.60
3406;DHT22;10008;48.682;9.016;2023-03-23T09:37:47;14.90;99.00
3406;DHT22;10008;48.682;9.016;2023-03-23T09:40:17;14.90;98.90
3406;DHT22;10008;48.682;9.016;2023-03-23T09:43:13;14.80;99.10
3406;DHT22;10008;48.682;9.016;2023-03-23T09:48:45;14.80;99.60
3406;DHT22;10008;48.682;9.016;2023-03-23T09:51:19;14.80;99.70
3406;DHT22;10008;48.682;9.016;2023-03-23T09:53:51;14.90;99.50
3406;DHT22;10008;48.682;9.016;2023-03-23T09:56:19;15.00;99.30
3406;DHT22;10008;48.682;9.016;2023-03-23T10:04:05;15.30;99.30
3406;DHT22;10008;48.682;9.016;2023-03-23T10:06:32;15.50;98.70
3406;DHT22;10008;48.682;9.016;2023-03-23T10:09:02;15.90;98.40
3406;DHT22;10008;48.682;9.016;2023-03-23T10:17:16;16.90;97.20
3406;DHT22;10008;48.682;9.016;2023-03-23T10:22:35;16.10;97.30
3406;DHT22;10008;48.682;9.016;2023-03-23T10:30:15;15.60;98.40
3406;DHT22;10008;48.682;9.016;2023-03-23T10:32:54;15.60;98.70
3406;DHT22;10008;48.682;9.016;2023-03-23T10:38:16;15.90;99.30
3406;DHT22;10008;48.682;9.016;2023-03-23T10:40:58;16.20;99.00
3406;DHT22;10008;48.682;9.016;2023-03-23T10:43:25;16.80;98.30
3406;DHT22;10008;48.682;9.016;2023-03-23T10:46:05;17.10;97.50
3406;DHT22;10008;48.682;9.016;2023-03-23T10:48:38;17.50;96.70
3406;DHT22;10008;48.682;9.016;2023-03-23T10:51:08;18.40;95.30
3406;DHT22;10008;48.682;9.016;2023-03-23T10:53:38;18.60;94.40
3406;DHT22;10008;48.682;9.016;2023-03-23T10:56:16;18.10;95.10
3406;DHT22;10008;48.682;9.016;2023-03-23T10:58:44;17.80;95.50
3406;DHT22;10008;48.682;9.016;2023-03-23T11:01:12;17.60;95.70
3406;DHT22;10008;48.682;9.016;2023-03-23T11:03:46;17.50;95.70
3406;DHT22;10008;48.682;9.016;2023-03-23T11:06:23;17.30;96.40
3406;DHT22;10008;48.682;9.016;2023-03-23T11:09:00;17.10;96.30
3406;DHT22;10008;48.682;9.016;2023-03-23T11:11:30;16.70;96.10
3406;DHT22;10008;48.682;9.016;2023-03-23T11:13:59;16.60;96.50
3406;DHT22;10008;48.682;9.016;2023-03-23T11:16:31;16.30;97.00
3406;DHT22;10008;48.682;9.016;2023-03-23T11:19:15;16.30;97.40
3406;DHT22;10008;48.682;9.016;2023-03-23T11:21:49;16.30;98.10
3406;DHT22;10008;48.682;9.016;2023-03-23T11:24:15;16.40;98.70
3406;DHT22;10008;48.682;9.016;2023-03-23T11:26:43;16.20;97.80
3406;DHT22;10008;48.682;9.016;2023-03-23T11:29:19;16.50;97.90
3406;DHT22;10008;48.682;9.016;2023-03-23T11:31:52;16.70;97.60
3406;DHT22;10008;48.682;9.016;2023-03-23T11:34:24;16.80;97.60
3406;DHT22;10008;48.682;9.016;2023-03-23T11:39:26;17.30;96.60
3406;DHT22;10008;48.682;9.016;2023-03-23T11:41:54;17.30;95.60
3406;DHT22;10008;48.682;9.016;2023-03-23T11:44:22;17.20;95.50
3406;DHT22;10008;48.682;9.016;2023-03-23T11:50:12;16.70;96.40
3406;DHT22;10008;48.682;9.016;2023-03-23T11:56:15;16.80;96.00
3406;DHT22;10008;48.682;9.016;2023-03-23T11:58:43;16.90;95.90
3406;DHT22;10008;48.682;9.016;2023-03-23T12:04:08;16.80;95.40
3406;DHT22;10008;48.682;9.016;2023-03-23T12:10:05;16.50;95.80
3406;DHT22;10008;48.682;9.016;2023-03-23T12:26:45;16.40;96.30
3406;DHT22;10008;48.682;9.016;2023-03-23T12:29:39;16.40;96.30
3406;DHT22;10008;48.682;9.016;2023-03-23T12:32:26;16.40;96.20
3406;DHT22;10008;48.682;9.016;2023-03-23T12:38:07;16.50;96.20
3406;DHT22;10008;48.682;9.016;2023-03-23T12:49:17;17.80;94.60
3406;DHT22;10008;48.682;9.016;2023-03-23T12:54:57;17.70;94.00
3406;DHT22;10008;48.682;9.016;2023-03-23T12:57:26;17.80;94.20
3406;DHT22;10008;48.682;9.016;2023-03-23T13:02:32;17.60;94.60
3406;DHT22;10008;48.682;9.016;2023-03-23T13:08:14;17.80;94.60
3406;DHT22;10008;48.682;9.016;2023-03-23T13:10:49;17.80;93.60
3406;DHT22;10008;48.682;9.016;2023-03-23T13:13:27;17.70;93.70
3406;DHT22;10008;48.682;9.016;2023-03-23T13:16:02;17.50;93.90
3406;DHT22;10008;48.682;9.016;2023-03-23T13:18:49;17.60;94.30
3406;DHT22;10008;48.682;9.016;2023-03-23T13:23:48;18.00;94.50
3406;DHT22;10008;48.682;9.016;2023-03-23T13:26:20;18.00;93.10
3406;DHT22;10008;48.682;9.016;2023-03-23T13:29:05;17.90;93.30
3406;DHT22;10008;48.682;9.016;2023-03-23T13:31:38;17.80;93.60
3406;DHT22;10008;48.682;9.016;2023-03-23T13:34:16;17.90;93.40
3406;DHT22;10008;48.682;9.016;2023-03-23T13:36:51;18.00;93.60
3406;DHT22;10008;48.682;9.016;2023-03-23T13:39:23;17.90;93.50
3406;DHT22;10008;48.682;9.016;2023-03-23T13:50:23;18.30;93.00
3406;DHT22;10008;48.682;9.016;2023-03-23T13:52:54;18.20;93.10
3406;DHT22;10008;48.682;9.016;2023-03-23T14:03:25;17.50;93.10
3406;DHT22;10008;48.682;9.016;2023-03-23T14:10:58;17.10;93.10
3406;DHT22;10008;48.682;9.016;2023-03-23T14:13:43;17.10;92.90
3406;DHT22;10008;48.682;9.016;2023-03-23T14:16:28;17.00;92.90
3406;DHT22;10008;48.682;9.016;2023-03-23T14:19:01;17.00;93.10
3406;DHT22;10008;48.682;9.016;2023-03-23T14:21:36;17.00;93.70
3406;DHT22;10008;48.682;9.016;2023-03-23T14:24:15;16.90;93.50
3406;DHT22;10008;48.682;9.016;2023-03-23T14:26:41;16.90;93.40
3406;DHT22;10008;48.682;9.016;2023-03-23T14:29:10;17.00;93.20
3406;DHT22;10008;48.682;9.016;2023-03-23T14:31:36;17.00;93.10
3406;DHT22;10008;48.682;9.016;2023-03-23T14:34:09;16.90;92.60
3406;DHT22;10008;48.682;9.016;2023-03-23T14:36:37;16.90;92.60
3406;DHT22;10008;48.682;9.016;2023-03-23T14:39:23;16.90;92.70
3406;DHT22;10008;48.682;9.016;2023-03-23T14:41:51;16.90;92.90
3406;DHT22;10008;48.682;9.016;2023-03-23T14:44:25;16.90;92.80
3406;DHT22;10008;48.682;9.016;2023-03-23T14:46:53;16.80;93.30
3406;DHT22;10008;48.682;9.016;2023-03-23T14:49:27;16.80;93.00
3406;DHT22;10008;48.682;9.016;2023-03-23T14:51:55;16.90;92.60
3406;DHT22;10008;48.682;9.016;2023-03-23T14:54:23;16.90;93.00
3406;DHT22;10008;48.682;9.016;2023-03-23T14:56:49;16.90;92.20
3406;DHT22;10008;48.682;9.016;2023-03-23T14:59:15;16.80;92.20
3406;DHT22;10008;48.682;9.016;2023-03-23T15:01:41;16.80;92.00
3406;DHT22;10008;48.682;9.016;2023-03-23T15:04:16;16.80;92.10
3406;DHT22;10008;48.682;9.016;2023-03-23T15:06:45;16.90;92.30
3406;DHT22;10008;48.682;9.016;2023-03-23T15:09:15;16.80;91.10
3406;DHT22;10008;48.682;9.016;2023-03-23T15:11:57;16.90;91.50
3406;DHT22;10008;48.682;9.016;2023-03-23T15:14:37;16.80;92.10
3406;DHT22;10008;48.682;9.016;2023-03-23T15:17:17;16.80;91.80
3406;DHT22;10008;48.682;9.016;2023-03-23T15:19:44;16.80;91.90
3406;DHT22;10008;48.682;9.016;2023-03-23T15:22:27;16.80;91.50
3406;DHT22;10008;48.682;9.016;2023-03-23T15:27:41;16.70;91.00
3406;DHT22;10008;48.682;9.016;2023-03-23T15:30:27;16.60;91.90
3406;DHT22;10008;48.682;9.016;2023-03-23T15:33:02;16.60;91.80
3406;DHT22;10008;48.682;9.016;2023-03-23T15:35:34;16.50;92.10
3406;DHT22;10008;48.682;9.016;2023-03-23T15:38:03;16.50;91.60
3406;DHT22;10008;48.682;9.016;2023-03-23T15:40:37;16.50;91.90
3406;DHT22;10008;48.682;9.016;2023-03-23T15:43:22;16.50;92.10
3406;DHT22;10008;48.682;9.016;2023-03-23T15:51:26;16.30;92.90
3406;DHT22;10008;48.682;9.016;2023-03-23T15:53:53;16.30;92.30
3406;DHT22;10008;48.682;9.016;2023-03-23T15:56:19;16.20;92.40
3406;DHT22;10008;48.682;9.016;2023-03-23T15:58:46;16.20;92.30
3406;DHT22;10008;48.682;9.016;2023-03-23T16:01:25;16.20;92.20
3406;DHT22;10008;48.682;9.016;2023-03-23T16:03:54;16.10;92.70
3406;DHT22;10008;48.682;9.016;2023-03-23T16:06:23;16.10;92.70
3406;DHT22;10008;48.682;9.016;2023-03-23T16:08:50;16.10;92.40
3406;DHT22;10008;48.682;9.016;2023-03-23T16:11:17;16.00;92.40
3406;DHT22;10008;48.682;9.016;2023-03-23T16:13:43;16.00;92.50
3406;DHT22;10008;48.682;9.016;2023-03-23T16:16:46;16.00;92.50
3406;DHT22;10008;48.682;9.016;2023-03-23T16:19:13;15.90;92.60
3406;DHT22;10008;48.682;9.016;2023-03-23T16:21:40;15.90;92.60
3406;DHT22;10008;48.682;9.016;2023-03-23T16:24:07;15.90;92.90
3406;DHT22;10008;48.682;9.016;2023-03-23T16:26:33;15.80;92.80
3406;DHT22;10008;48.682;9.016;2023-03-23T16:29:00;15.80;92.90
3406;DHT22;10008;48.682;9.016;2023-03-23T16:31:27;15.80;93.20
3406;DHT22;10008;48.682;9.016;2023-03-23T16:33:54;15.80;93.00
3406;DHT22;10008;48.682;9.016;2023-03-23T16:36:20;15.70;93.30
3406;DHT22;10008;48.682;9.016;2023-03-23T16:38:46;15.60;93.30
3406;DHT22;10008;48.682;9.016;2023-03-23T16:41:11;15.60;93.40
3406;DHT22;10008;48.682;9.016;2023-03-23T16:43:37;15.60;93.50
3406;DHT22;10008;48.682;9.016;2023-03-23T16:46:03;15.60;93.60
3406;DHT22;10008;48.682;9.016;2023-03-23T16:48:29;15.50;93.70
3406;DHT22;10008;48.682;9.016;2023-03-23T16:50:55;15.50;94.20
3406;DHT22;10008;48.682;9.016;2023-03-23T16:53:22;15.50;93.90
3406;DHT22;10008;48.682;9.016;2023-03-23T16:55:51;15.40;94.50
3406;DHT22;10008;48.682;9.016;2023-03-23T16:58:16;15.40;94.70
3406;DHT22;10008;48.682;9.016;2023-03-23T17:00:44;15.40;94.60
3406;DHT22;10008;48.682;9.016;2023-03-23T17:03:09;15.40;94.90
3406;DHT22;10008;48.682;9.016;2023-03-23T17:05:36;15.40;94.60
3406;DHT22;10008;48.682;9.016;2023-03-23T17:08:02;15.30;95.60
3406;DHT22;10008;48.682;9.016;2023-03-23T17:10:29;15.30;95.10
3406;DHT22;10008;48.682;9.016;2023-03-23T17:12:56;15.40;95.30
3406;DHT22;10008;48.682;9.016;2023-03-23T17:15:22;15.40;95.10
3406;DHT22;10008;48.682;9.016;2023-03-23T17:17:50;15.40;95.40
3406;DHT22;10008;48.682;9.016;2023-03-23T17:20:17;15.30;95.50
3406;DHT22;10008;48.682;9.016;2023-03-23T17:22:43;15.30;95.60
3406;DHT22;10008;48.682;9.016;2023-03-23T17:25:09;15.20;95.80
3406;DHT22;10008;48.682;9.016;2023-03-23T17:27:35;15.20;95.90
3406;DHT22;10008;48.682;9.016;2023-03-23T17:30:03;15.20;96.30
3406;DHT22;10008;48.682;9.016;2023-03-23T17:32:28;15.10;96.20
3406;DHT22;10008;48.682;9.016;2023-03-23T17:34:54;15.10;96.10
3406;DHT22;10008;48.682;9.016;2023-03-23T17:37:21;15.10;96.00
3406;DHT22;10008;48.682;9.016;2023-03-23T17:39:46;15.00;96.30
3406;DHT22;10008;48.682;9.016;2023-03-23T17:42:12;15.00;96.30
3406;DHT22;10008;48.682;9.016;2023-03-23T17:44:38;15.00;96.70
3406;DHT22;10008;48.682;9.016;2023-03-23T17:47:04;14.90;96.60
3406;DHT22;10008;48.682;9.016;2023-03-23T17:49:30;14.90;96.50
3406;DHT22;10008;48.682;9.016;2023-03-23T17:51:57;14.90;96.80
3406;DHT22;10008;48.682;9.016;2023-03-23T17:54:23;14.90;97.00
3406;DHT22;10008;48.682;9.016;2023-03-23T17:56:54;14.90;96.70
3406;DHT22;10008;48.682;9.016;2023-03-23T17:59:22;14.90;97.10
3406;DHT22;10008;48.682;9.016;2023-03-23T18:01:49;14.80;96.90
3406;DHT22;10008;48.682;9.016;2023-03-23T18:04:15;14.80;96.90
3406;DHT22;10008;48.682;9.016;2023-03-23T18:06:41;14.80;97.70
3406;DHT22;10008;48.682;9.016;2023-03-23T18:09:07;14.70;97.70
3406;DHT22;10008;48.682;9.016;2023-03-23T18:11:33;14.80;97.50
3406;DHT22;10008;48.682;9.016;2023-03-23T18:13:59;14.70;97.70
3406;DHT22;10008;48.682;9.016;2023-03-23T18:16:25;14.70;97.50
3406;DHT22;10008;48.682;9.016;2023-03-23T18:18:51;14.70;97.60
3406;DHT22;10008;48.682;9.016;2023-03-23T18:21:16;14.70;97.50